Latest Weather Observations for Brewon

IDN60801

Issued at 12:42 am EDT Tuesday 20 November 2018 (issued every 10 minutes, with the page automatically refreshed every 10 minutes)

About weather observations | Map of weather stations | Latest weather observations for NSW | Other Formats
Station Details ID: 051162 Name: BREWON AWS Lat: -30.24 Lon: 147.53 Height: 130.0 m
Data from the previous 72 hours. | See also: Recent months at Brewon
Date/Time
EDT
Temp
°C
App
Temp
°C
Dew
Point
°C
Rel
Hum
%
Delta-T
°C
Wind Press
QNH
hPa
Press
MSL
hPa
Rain since
9am
mm
Dir  Spd
km/h
Gust
km/h
Spd
kts
Gust
kts
20/12:30am 24.8 - 12.4 46 7.2 - - - - - - - 0.0
20/12:00am 25.2 - 12.1 44 7.5 - - - - - - - 0.0
 
Date/Time
EDT
Temp
°C
App
Temp
°C
Dew
Point
°C
Rel
Hum
%
Delta-T
°C
Wind Press
QNH
hPa
Press
MSL
hPa
Rain since
9am
mm
Dir  Spd
km/h
Gust
km/h
Spd
kts
Gust
kts
19/11:30pm 26.3 - 12.4 42 8.1 - - - - - - - 0.0
19/11:00pm 26.1 - 12.2 42 8.0 - - - - - - - 0.0
19/10:30pm 26.5 - 12.2 41 8.3 - - - - - - - 0.0
19/10:00pm 26.5 - 12.2 41 8.3 - - - - - - - 0.0
19/09:30pm 26.9 - 12.2 40 8.5 - - - - - - - 0.0
19/09:00pm 27.3 - 12.5 40 8.7 - - - - - - - 0.0
19/08:30pm 28.0 - 12.0 37 9.3 - - - - - - - 0.0
19/08:00pm 28.6 - 12.1 36 9.6 - - - - - - - 0.0
19/07:30pm 29.3 - 12.3 35 10.0 - - - - - - - 0.0
19/07:00pm 29.6 - 12.5 35 10.1 - - - - - - - 0.0
19/06:30pm 30.5 - 12.9 34 10.5 - - - - - - - 0.0
19/06:00pm 30.7 - 13.0 33 10.6 - - - - - - - 0.0
19/05:30pm 31.3 - 13.1 33 10.9 - - - - - - - 0.0
19/05:00pm 30.9 - 13.2 34 10.6 - - - - - - - 0.0
19/04:30pm 30.2 - 13.5 36 10.0 - - - - - - - 0.0
19/04:00pm 31.1 - 13.4 34 10.7 - - - - - - - 0.0
19/03:30pm 31.0 - 13.7 34 10.5 - - - - - - - 0.0
19/03:00pm 30.3 - 13.6 36 10.1 - - - - - - - 0.0
19/02:30pm 29.6 - 13.8 38 9.5 - - - - - - - 0.0
19/02:00pm 29.0 - 13.2 37 9.4 - - - - - - - 0.0
19/01:30pm 28.6 - 12.9 38 9.3 - - - - - - - 0.0
19/01:00pm 28.6 - 13.3 39 9.1 - - - - - - - 0.0
19/12:30pm 28.4 - 13.1 39 9.1 - - - - - - - 0.0
19/12:00pm 26.7 - 12.7 42 8.2 - - - - - - - 0.0
19/11:30am 26.7 - 13.4 43 7.9 - - - - - - - 0.0
19/11:00am 26.2 - 13.3 45 7.6 - - - - - - - 0.0
19/10:30am 25.5 - 13.7 48 7.0 - - - - - - - 0.0
19/10:00am 25.1 - 13.3 48 6.9 - - - - - - - 0.0
19/09:30am 24.8 - 13.0 47 6.9 - - - - - - - 0.0
19/09:00am 23.4 - 12.7 51 6.2 - - - - - - - 0.0
19/08:30am 22.3 - 12.5 53 5.6 - - - - - - - 0.0
19/08:00am 21.8 - 13.2 58 5.0 - - - - - - - 0.0
19/07:30am 21.3 - 12.7 58 4.9 - - - - - - - 0.0
19/07:00am 20.9 - 12.6 59 4.7 - - - - - - - 0.0
19/06:30am 20.1 - 13.1 64 4.0 - - - - - - - 0.0
19/06:00am 20.2 - 13.2 64 4.0 - - - - - - - 0.0
19/05:30am 20.8 - 13.3 62 4.3 - - - - - - - 0.0
19/05:00am 20.9 - 13.4 62 4.3 - - - - - - - 0.0
19/04:30am 21.2 - 13.6 62 4.4 - - - - - - - 0.0
19/04:00am 21.9 - 14.0 61 4.6 - - - - - - - 0.0
19/03:30am 22.1 - 14.7 63 4.4 - - - - - - - 0.0
19/03:00am 22.3 - 15.2 64 4.2 - - - - - - - 0.0
19/02:30am 22.6 - 15.0 62 4.5 - - - - - - - 0.0
19/02:00am 23.4 - 15.2 60 4.9 - - - - - - - 0.0
19/01:30am 23.9 - 15.1 58 5.3 - - - - - - - 0.0
19/01:00am 24.5 - 14.9 55 5.8 - - - - - - - 0.0
19/12:30am 25.3 - 14.7 51 6.4 - - - - - - - 0.0
19/12:00am 26.6 - 13.3 43 7.9 - - - - - - - 0.0
 
Date/Time
EDT
Temp
°C
App
Temp
°C
Dew
Point
°C
Rel
Hum
%
Delta-T
°C
Wind Press
QNH
hPa
Press
MSL
hPa
Rain since
9am
mm
Dir  Spd
km/h
Gust
km/h
Spd
kts
Gust
kts
18/11:30pm 27.2 - 9.5 33 9.8 - - - - - - - 0.0
18/11:00pm 26.9 - 8.8 32 9.9 - - - - - - - 0.0
18/10:30pm 27.6 - 6.9 27 11.0 - - - - - - - 0.0
18/10:00pm 27.8 - 7.6 28 10.9 - - - - - - - 0.0
18/09:30pm 27.4 - 6.8 27 10.9 - - - - - - - 0.0
18/09:00pm 27.7 - 6.5 26 11.2 - - - - - - - 0.0
18/08:30pm 27.6 - 5.8 25 11.4 - - - - - - - 0.0
18/08:00pm 29.9 - 6.5 23 12.5 - - - - - - - 0.0
18/07:30pm 31.5 - 5.8 20 13.7 - - - - - - - 0.0
18/07:00pm 32.1 - 6.3 20 14.0 - - - - - - - 0.0
18/06:30pm 32.1 - 6.3 20 14.0 - - - - - - - 0.0
18/06:00pm 32.7 - 6.8 20 14.2 - - - - - - - 0.0
18/05:30pm 32.9 - 7.7 21 14.0 - - - - - - - 0.0
18/05:00pm 33.0 - 7.8 21 14.0 - - - - - - - 0.0
18/04:30pm 33.1 - 7.1 20 14.3 - - - - - - - 0.0
18/04:00pm 33.0 - 9.1 23 13.6 - - - - - - - 0.0
18/03:30pm 31.9 - 8.8 24 13.0 - - - - - - - 0.0
18/03:00pm 30.9 - 9.7 27 12.0 - - - - - - - 0.0
18/02:30pm 32.6 - 10.6 26 12.8 - - - - - - - 0.0
18/02:00pm 31.1 - 11.5 30 11.5 - - - - - - - 0.0
18/01:30pm 31.2 - 12.1 31 11.3 - - - - - - - 0.0
18/01:00pm 30.3 - 12.2 33 10.7 - - - - - - - 0.0
18/12:30pm 29.5 - 12.4 35 10.1 - - - - - - - 0.0
18/12:00pm 28.8 - 12.2 35 9.7 - - - - - - - 0.0
18/11:30am 28.0 - 12.0 37 9.3 - - - - - - - 0.0
18/11:00am 26.6 - 11.9 40 8.5 - - - - - - - 0.0
18/10:30am 26.9 - 11.4 38 8.9 - - - - - - - 0.0
18/10:00am 25.7 - 11.5 41 8.1 - - - - - - - 0.0
18/09:30am 24.5 - 10.8 42 7.7 - - - - - - - 0.0
18/09:00am 24.3 - 10.9 43 7.5 - - - - - - - 0.0
18/08:30am 23.1 - 10.5 45 7.0 - - - - - - - 0.0
18/08:00am 22.5 - 10.9 48 6.5 - - - - - - - 0.0
18/07:30am 21.4 - 10.6 50 5.9 - - - - - - - 0.0
18/07:00am 20.5 - 10.6 53 5.4 - - - - - - - 0.0
18/06:30am 19.9 - 10.9 56 4.9 - - - - - - - 0.0
18/06:00am 20.0 - 11.0 56 4.9 - - - - - - - 0.0
18/05:30am 20.1 - 10.8 55 5.1 - - - - - - - 0.0
18/05:00am 20.5 - 10.9 54 5.3 - - - - - - - 0.0
18/04:30am 20.9 - 11.0 53 5.5 - - - - - - - 0.0
18/04:00am 21.3 - 11.1 52 5.7 - - - - - - - 0.0
18/03:30am 21.7 - 10.8 50 6.0 - - - - - - - 0.0
18/03:00am 21.9 - 10.4 48 6.3 - - - - - - - 0.0
18/02:30am 22.0 - 7.8 40 7.4 - - - - - - - 0.0
18/02:00am 22.5 - 6.7 36 8.1 - - - - - - - 0.0
18/01:30am 22.7 - 3.3 28 9.4 - - - - - - - 0.0
18/01:00am 23.0 - -0.5 21 10.6 - - - - - - - 0.0
18/12:30am 23.3 - -2.3 18 11.2 - - - - - - - 0.0
18/12:00am 24.1 - -1.7 18 11.5 - - - - - - - 0.0
 
Date/Time
EDT
Temp
°C
App
Temp
°C
Dew
Point
°C
Rel
Hum
%
Delta-T
°C
Wind Press
QNH
hPa
Press
MSL
hPa
Rain since
9am
mm
Dir  Spd
km/h
Gust
km/h
Spd
kts
Gust
kts
17/11:30pm 23.5 - -1.4 19 11.1 - - - - - - - 0.0
17/11:00pm 23.4 - -0.8 20 10.9 - - - - - - - 0.0
17/10:30pm 23.8 - -0.5 20 11.0 - - - - - - - 0.0
17/10:00pm 24.3 - -0.1 20 11.2 - - - - - - - 0.0
17/09:30pm 24.9 - -1.0 18 11.8 - - - - - - - 0.0
17/09:00pm 26.1 - -0.8 17 12.4 - - - - - - - 0.0
17/08:30pm 27.5 - -1.4 15 13.3 - - - - - - - 0.0
17/08:00pm 28.6 - -1.5 14 13.9 - - - - - - - 0.0
17/07:30pm 29.9 - -2.6 12 14.9 - - - - - - - 0.0
17/07:00pm 30.8 - -1.9 12 15.3 - - - - - - - 0.0
17/06:30pm 31.6 - -3.7 10 16.1 - - - - - - - 0.0
17/06:00pm 32.2 - -4.6 9 16.6 - - - - - - - 0.0
17/05:30pm 32.8 - -4.2 9 16.9 - - - - - - - 0.0
17/05:00pm 32.6 - -4.3 9 16.8 - - - - - - - 0.0
17/04:30pm 32.7 - -4.3 9 16.8 - - - - - - - 0.0
17/04:00pm 33.3 - -2.4 10 16.8 - - - - - - - 0.0
17/03:30pm 32.9 - -1.4 11 16.4 - - - - - - - 0.0
17/03:00pm 33.4 - 0.1 12 16.4 - - - - - - - 0.0
17/02:30pm 32.4 - 0.5 13 15.7 - - - - - - - 0.0
17/02:00pm 31.8 - 0.0 13 15.5 - - - - - - - 0.0
17/01:30pm 31.4 - 0.7 14 15.1 - - - - - - - 0.0
17/01:00pm 31.7 - 1.9 15 14.9 - - - - - - - 0.0
17/12:30pm 31.1 - 3.2 17 14.3 - - - - - - - 0.0
17/12:00pm 30.6 - 4.4 19 13.6 - - - - - - - 0.0
17/11:30am 29.6 - 5.6 22 12.7 - - - - - - - 0.0
17/11:00am 28.6 - 7.8 27 11.3 - - - - - - - 0.0
17/10:30am 27.3 - 9.6 33 9.9 - - - - - - - 0.0
17/10:00am 26.8 - 10.5 36 9.2 - - - - - - - 0.0
17/09:30am 25.6 - 11.0 40 8.3 - - - - - - - 0.0
17/09:00am 24.0 - 10.3 42 7.6 - - - - - - - 0.0
17/08:30am 23.1 - 9.1 41 7.6 - - - - - - - 0.0
17/08:00am 21.7 - 7.5 40 7.4 - - - - - - - 0.0
17/07:30am 19.9 - 4.4 36 7.5 - - - - - - - 0.0
17/07:00am 18.3 - 1.8 33 7.5 - - - - - - - 0.0
17/06:30am 16.6 - 0.7 34 7.0 - - - - - - - 0.0
17/06:00am 16.4 - 0.5 34 6.9 - - - - - - - 0.0
17/05:30am 16.6 - 0.3 33 7.1 - - - - - - - 0.0
17/05:00am 16.6 - 0.3 33 7.1 - - - - - - - 0.0
17/04:30am 17.3 - 0.0 31 7.5 - - - - - - - 0.0
17/04:00am 18.3 - 0.4 30 7.9 - - - - - - - 0.0
17/03:30am 18.3 - 0.0 29 8.0 - - - - - - - 0.0
17/03:00am 19.0 - 0.1 28 8.3 - - - - - - - 0.0
17/02:30am 19.3 - -0.1 27 8.6 - - - - - - - 0.0
17/02:00am 20.1 - 0.0 26 8.9 - - - - - - - 0.0
17/01:30am 21.2 - 0.4 25 9.4 - - - - - - - 0.0
17/01:00am 21.8 - 0.9 25 9.6 - - - - - - - 0.0

Other Formats:

Comma delimited format used in spreadsheet applications
http://www.bom.gov.au/fwo/IDN60801/IDN60801.94793.axf

JavaScript Object Notation format (JSON) in row-major order
http://www.bom.gov.au/fwo/IDN60801/IDN60801.94793.json